| Date | Time | Temp. (oF) | Dew Point (oF) | Rel. Hum. (%) | Press. (in.) | Wind Dir. | Wind Speed (mph) | Hourly Rainfall (in.) |
|
|---|---|---|---|---|---|---|---|---|---|
| 1 | 04/29 | 00:00 | 69 | 52 | 55 | 30.26 | NNE | 5 | 0.00 |
| 2 | 04/28 | 23:00 | 70 | 52 | 54 | 30.25 | NE | 8 | 0.00 |
| 3 | 04/28 | 22:00 | 73 | 53 | 51 | 30.22 | NNE | 11 | 0.00 |
| 4 | 04/28 | 21:00 | 79 | 53 | 41 | 30.12 | W | 3 | 0.00 |
| 5 | 04/28 | 20:00 | 81 | 52 | 38 | 30.10 | SW | 3 | 0.00 |
| 6 | 04/28 | 19:00 | 84 | 53 | 35 | 30.08 | SSW | 5 | 0.00 |
| 7 | 04/28 | 18:00 | 86 | 51 | 31 | 30.08 | SW | 9 | 0.00 |
| 8 | 04/28 | 17:00 | 87 | 53 | 32 | 30.09 | SW | 14 | 0.00 |
| 9 | 04/28 | 16:00 | 88 | 54 | 32 | 30.10 | SSW | 11 | 0.00 |
| 10 | 04/28 | 15:00 | 87 | 54 | 34 | 30.14 | WSW | 8 | 0.00 |
| 11 | 04/28 | 14:00 | 86 | 52 | 32 | 30.16 | SW | 6 | 0.00 |
| 12 | 04/28 | 13:00 | 85 | 52 | 33 | 30.18 | WSW | 7 | 0.00 |
| 13 | 04/28 | 12:00 | 83 | 52 | 35 | 30.21 | SW | 7 | 0.00 |
| 14 | 04/28 | 11:00 | 82 | 52 | 36 | 30.22 | WSW | 7 | 0.00 |
| 15 | 04/28 | 10:00 | 79 | 52 | 40 | 30.23 | SW | 7 | 0.00 |
| 16 | 04/28 | 09:00 | 75 | 53 | 48 | 30.23 | SSW | 4 | 0.00 |
| 17 | 04/28 | 08:00 | 71 | 52 | 52 | 30.23 | WSW | 7 | 0.00 |
| 18 | 04/28 | 07:00 | 69 | 50 | 52 | 30.23 | SSW | 8 | 0.00 |
| 19 | 04/28 | 06:00 | 70 | 50 | 50 | 30.22 | SW | 4 | 0.00 |
| 20 | 04/28 | 05:00 | 71 | 49 | 47 | 30.21 | SW | 5 | 0.00 |
| 21 | 04/28 | 04:00 | 73 | 49 | 44 | 30.21 | SSW | 8 | 0.00 |
| 22 | 04/28 | 03:00 | 73 | 49 | 44 | 30.22 | SW | 7 | 0.00 |
| 23 | 04/28 | 02:00 | 74 | 50 | 44 | 30.23 | SSW | 4 | 0.00 |
| 24 | 04/28 | 01:00 | 75 | 51 | 44 | 30.24 | SW | 5 | 0.00 |